AirNav   Pilot Hours Calculator
 
 629 users online  

FA81 Tavernaero Park Airport
Tavernier, Florida, USA

GOING TO TAVERNIER?


FAA INFORMATION EFFECTIVE 26 MARCH 2020

Location

FAA Identifier: FA81
Lat/Long: 25-00-31.4670N 080-31-59.2200W
25-00.524450N 080-31.987000W
25.0087408,-80.5331167
(estimated)
Elevation: 10 ft. / 3 m (estimated)
Variation: 02W (1985)
From city: 1 mile W of TAVERNIER, FL
Time zone: UTC -4 (UTC -5 during Standard Time)
Zip code: 33070

Airport Operations

Airport use: Private use. Permission required prior to landing
Activation date: 09/1963
Control tower: no
ARTCC: MIAMI CENTER
FSS: MIAMI FLIGHT SERVICE STATION
Attendance: CONTINUOUS
Wind indicator: yes
Segmented circle: no

Airport Communications

  • MULTICOM 122.900.

Nearby radio navigation aids

NDB name  Hdg/Dist  Freq  Var  ID
MARATHON064/35.426004WMTH -- - ....

Airport Services

Airframe service: NONE
Powerplant service: NONE

Runway Information

Runway 8/26

Dimensions: 2175 x 95 ft. / 663 x 29 m
Surface: turf
RUNWAY 8  RUNWAY 26
Traffic pattern: leftleft
Obstructions: road203 ft. tower, marked and lighted, 2500 ft. from runway

Airport Ownership and Management from official FAA records

Ownership: Privately-owned
Owner: TAVERNAERO ARPT PARK INC
P O BOX 806
LONG KEY, FL 33001
Manager: TOM BOSELY
105 N AIRPORT RD
TAVERNIER, FL 33070
Phone (305) 393-2710

Airport Operational Statistics

Aircraft based on the field: 19
Single engine airplanes: 16
Multi engine airplanes: 3
    

Additional Remarks

FOR CD CTC MIAMI ARTCC AT 305-716-1731.

Instrument Procedures

There are no published instrument procedures at FA81.

Some nearby airports with instrument procedures:

07FA - Ocean Reef Club Airport (24 nm NE)
X51 - Miami Homestead General Aviation Airport (29 nm N)
KHST - Homestead Air Reserve Base (30 nm N)
KMTH - The Florida Keys Marathon International Airport (33 nm SW)
KTMB - Miami Executive Airport (39 nm N)
 
Loc | Ops | Rwys | IFR | FBO | Links
Com | Nav | Svcs | Stats | Notes


 
Area around FA81 (Tavernaero Park Airport)
 
Road maps at: MapQuest Bing Google
 
Aerial photo
WARNING: Photo may not be current or correct
Aerial photo of FA81 (Tavernaero Park Airport)
Photo taken 19-Jul-2010
looking North.

Do you have a better or more recent aerial photo of Tavernaero Park Airport that you would like to share? If so, please send us your photo.

 
Sectional chart

 
Airport distance calculator
Flying to Tavernaero Park Airport? Find the distance to fly.

From to FA81

Sunrise and sunset
Times for 10-Apr-2020
 Local
(UTC-4)
 Zulu
(UTC)
Morning civil twilight06:4210:42
Sunrise07:0511:05
Sunset19:4223:42
Evening civil twilight20:0500:05

Current date and time
Zulu (UTC)  10-Apr-2020 04:48:41
Local (UTC-4)  10-Apr-2020 00:48:41
 
METAR
KHST 
29nm N 
100356Z AUTO 26008KT 10SM CLR 24/22 A2986 RMK AO2 SLP115 T02440223 $
KMTH 
33nm SW 
100353Z AUTO 29006KT 10SM CLR 25/22 A2989 RMK AO2 SLP121 T02500222
KTMB 
39nm N 
100353Z AUTO 25008KT 10SM CLR 24/23 A2987 RMK AO2 SLP114 T02440228
KMIA 
48nm N 
100353Z 25007KT 10SM CLR 26/23 A2987 RMK AO2 SLP115 T02560228
TAF
KHST 
29nm N 
100300Z 1003/1109 26007KT 9999 SKC QNH2979INS TEMPO 1008/1012 9000 MIFG BECMG 1015/1016 26012G18KT 9999 NSW FEW035 QNH2980INS BECMG 1023/1024 01009KT 9999 BKN025 QNH2985INS TX34/1019Z TN21/1011Z
KMTH 
33nm SW 
091738Z 0918/1018 28006KT P6SM SCT020= TAF KEYW 091738Z 0918/1018 26005KT P6SM FEW020
NOTAMs
Click for the latest NOTAMs
NOTAMs are issued by the DoD/FAA and will open in a separate window not controlled by AirNav.

 

 
 

Would you like to see your business listed on this page?

 If your business provides an interesting product or service to pilots, flight crews, aircraft, or users of the Tavernaero Park Airport, you should consider listing it here.  To start the listing process, click on the button below
 
Add a business
 

Other Pages about Tavernaero Park Airport

Update a link
 
Copyright © AirNav, LLC. All rights reserved. Privacy Policy  Contact